createdAt,value
2022-12-15T00:02:18.256Z,-6.30
2022-12-15T00:05:03.318Z,-6.30
2022-12-15T00:07:48.684Z,-6.30
2022-12-15T00:10:34.052Z,-6.30
2022-12-15T00:13:19.430Z,-6.30
2022-12-15T00:16:05.572Z,-6.30
2022-12-15T00:18:50.729Z,-6.30
2022-12-15T00:21:36.136Z,-6.40
2022-12-15T00:24:21.494Z,-6.50
2022-12-15T00:27:06.937Z,-6.40
2022-12-15T00:29:52.338Z,-6.30
2022-12-15T00:32:37.622Z,-6.60
2022-12-15T00:35:23.190Z,-6.00
2022-12-15T00:38:08.525Z,-6.30
2022-12-15T00:40:35.156Z,-6.30
2022-12-15T00:43:01.734Z,-6.40
2022-12-15T00:45:48.272Z,-6.50
2022-12-15T00:48:15.143Z,-6.50
2022-12-15T00:50:53.443Z,-6.50
2022-12-15T00:53:39.976Z,-6.50
2022-12-15T00:56:25.935Z,-6.40
2022-12-15T00:59:11.669Z,-6.50
2022-12-15T01:01:57.210Z,-6.50
2022-12-15T01:04:42.428Z,-6.50
2022-12-15T01:07:27.780Z,-6.50
2022-12-15T01:10:13.255Z,-6.50
2022-12-15T01:12:58.666Z,-6.40
2022-12-15T01:15:44.280Z,-6.10
2022-12-15T01:18:29.314Z,-6.30
2022-12-15T01:21:00.681Z,-6.20
2022-12-15T01:23:27.654Z,-6.20
2022-12-15T01:25:55.011Z,-6.20
2022-12-15T01:28:22.864Z,-6.20
2022-12-15T01:30:50.354Z,-6.20
2022-12-15T01:33:18.182Z,-6.30
2022-12-15T01:35:45.131Z,-6.30
2022-12-15T01:38:11.997Z,-6.30
2022-12-15T01:40:50.042Z,-6.30
2022-12-15T01:43:22.357Z,-6.30
2022-12-15T01:46:04.674Z,-6.10
2022-12-15T01:48:59.648Z,-6.30
2022-12-15T01:51:39.769Z,-6.40
2022-12-15T01:54:11.347Z,-6.40
2022-12-15T01:56:41.822Z,-6.40
2022-12-15T01:59:12.401Z,-6.40
2022-12-15T02:01:39.321Z,-6.40
2022-12-15T02:04:06.727Z,-6.50
2022-12-15T02:06:33.593Z,-6.50
2022-12-15T02:09:01.209Z,-6.40
2022-12-15T02:11:27.796Z,-6.30
2022-12-15T02:14:05.737Z,-6.20
2022-12-15T02:16:55.163Z,-6.20
2022-12-15T02:20:05.264Z,-6.20
2022-12-15T02:23:10.437Z,-6.30
2022-12-15T02:25:59.143Z,-6.40
2022-12-15T02:28:50.928Z,-6.50
2022-12-15T02:31:50.569Z,-6.50
2022-12-15T02:34:49.732Z,-6.50
2022-12-15T02:37:42.769Z,-6.40
2022-12-15T02:40:11.290Z,-6.40
2022-12-15T02:42:50.169Z,-6.50
2022-12-15T02:45:28.616Z,-6.50
2022-12-15T02:48:23.611Z,-6.50
2022-12-15T02:51:28.204Z,-6.50
2022-12-15T02:54:18.887Z,-6.50
2022-12-15T02:57:25.959Z,-6.50
2022-12-15T02:59:59.044Z,-6.50
2022-12-15T03:02:28.725Z,-6.40
2022-12-15T03:04:55.724Z,-6.30
2022-12-15T03:07:23.738Z,-6.40
2022-12-15T03:09:50.345Z,-6.20
2022-12-15T03:12:16.992Z,-6.20
2022-12-15T03:14:44.149Z,-6.10
2022-12-15T03:17:10.821Z,-6.00
2022-12-15T03:19:37.435Z,-5.90
2022-12-15T03:22:04.317Z,-5.90
2022-12-15T03:24:31.119Z,-5.50
2022-12-15T03:26:57.746Z,-5.60
2022-12-15T03:29:24.406Z,-5.50
2022-12-15T03:31:51.028Z,-5.60
2022-12-15T03:34:18.066Z,-5.50
2022-12-15T03:36:44.652Z,-5.50
2022-12-15T03:39:11.271Z,-5.40
2022-12-15T03:41:37.887Z,-5.40
2022-12-15T03:44:04.867Z,-5.40
2022-12-15T03:46:31.468Z,-5.50
2022-12-15T03:48:58.558Z,-5.60
2022-12-15T03:51:25.262Z,-5.80
2022-12-15T03:53:52.101Z,-5.80
2022-12-15T03:56:18.660Z,-5.90
2022-12-15T03:58:45.292Z,-5.90
2022-12-15T04:01:20.918Z,-5.90
2022-12-15T04:03:47.741Z,-6.00
2022-12-15T04:06:14.416Z,-6.00
2022-12-15T04:08:41.028Z,-6.00
2022-12-15T04:11:07.610Z,-6.00
2022-12-15T04:13:34.573Z,-5.90
2022-12-15T04:16:04.583Z,-5.70
2022-12-15T04:18:31.444Z,-5.60
2022-12-15T04:20:58.049Z,-5.60
2022-12-15T04:23:24.792Z,-5.50
2022-12-15T04:26:10.311Z,-5.50
2022-12-15T04:28:55.618Z,-5.50
2022-12-15T04:31:48.127Z,-5.60
2022-12-15T04:34:37.642Z,-5.60
2022-12-15T04:37:26.091Z,-5.70
2022-12-15T04:40:13.491Z,-5.60
2022-12-15T04:43:03.513Z,-5.60
2022-12-15T04:45:49.013Z,-5.60
2022-12-15T04:48:34.460Z,-5.60
2022-12-15T04:51:19.899Z,-5.60
2022-12-15T04:54:05.125Z,-5.60
2022-12-15T04:56:51.116Z,-5.70
2022-12-15T04:59:36.705Z,-5.70
2022-12-15T05:02:22.166Z,-5.80
2022-12-15T05:05:08.466Z,-6.00
2022-12-15T05:07:53.792Z,-6.00
2022-12-15T05:10:39.174Z,-6.00
2022-12-15T05:13:26.029Z,-6.10
2022-12-15T05:16:11.465Z,-6.20
2022-12-15T05:18:56.852Z,-6.10
2022-12-15T05:21:42.283Z,-6.00
2022-12-15T05:24:27.690Z,-5.90
2022-12-15T05:27:13.199Z,-5.80
2022-12-15T05:29:58.667Z,-5.80
2022-12-15T05:32:25.332Z,-5.80
2022-12-15T05:34:51.952Z,-5.80
2022-12-15T05:37:18.610Z,-5.90
2022-12-15T05:39:45.152Z,-5.90
2022-12-15T05:42:11.860Z,-5.90
2022-12-15T05:44:38.465Z,-6.00
2022-12-15T05:47:05.121Z,-6.00
2022-12-15T05:49:31.846Z,-6.00
2022-12-15T05:51:58.398Z,-6.00
2022-12-15T05:54:25.464Z,-6.00
2022-12-15T05:56:52.113Z,-6.00
2022-12-15T05:59:19.343Z,-6.00
2022-12-15T06:01:46.259Z,-6.20
2022-12-15T06:04:13.255Z,-6.40
2022-12-15T06:06:40.621Z,-6.40
2022-12-15T06:09:08.419Z,-6.50
2022-12-15T06:11:35.142Z,-6.60
2022-12-15T06:14:02.609Z,-6.50
2022-12-15T06:16:29.299Z,-6.50
2022-12-15T06:18:58.761Z,-6.50
2022-12-15T06:21:31.721Z,-6.90
2022-12-15T06:23:58.569Z,-6.80
2022-12-15T06:26:28.146Z,-6.80
2022-12-15T06:28:56.974Z,-6.70
2022-12-15T06:31:25.435Z,-6.90
2022-12-15T06:33:59.208Z,-6.90
2022-12-15T06:36:28.620Z,-7.00
2022-12-15T06:39:02.623Z,-7.00
2022-12-15T06:41:32.232Z,-6.90
2022-12-15T06:43:59.593Z,-6.90
2022-12-15T06:46:28.311Z,-7.20
2022-12-15T06:48:55.354Z,-6.90
2022-12-15T06:51:22.382Z,-6.90
2022-12-15T06:53:49.109Z,-6.80
2022-12-15T06:56:20.080Z,-6.80
2022-12-15T06:58:51.072Z,-6.80
2022-12-15T07:01:19.496Z,-6.80
2022-12-15T07:03:46.417Z,-6.80
2022-12-15T07:06:15.516Z,-6.80
2022-12-15T07:08:43.121Z,-6.80
2022-12-15T07:11:12.800Z,-6.70
2022-12-15T07:13:40.129Z,-6.80
2022-12-15T07:16:08.107Z,-6.80
2022-12-15T07:18:34.876Z,-6.90
2022-12-15T07:21:06.464Z,-6.80
2022-12-15T07:23:53.236Z,-6.80
2022-12-15T07:26:20.944Z,-7.00
2022-12-15T07:28:47.575Z,-6.90
2022-12-15T07:31:15.452Z,-6.90
2022-12-15T07:33:42.398Z,-7.00
2022-12-15T07:36:09.388Z,-7.00
2022-12-15T07:38:36.859Z,-7.00
2022-12-15T07:41:05.940Z,-7.00
2022-12-15T07:43:33.411Z,-7.00
2022-12-15T07:46:00.507Z,-7.00
2022-12-15T07:48:27.628Z,-6.90
2022-12-15T07:51:02.813Z,-6.90
2022-12-15T07:53:35.491Z,-6.80
2022-12-15T07:56:09.067Z,-7.30
2022-12-15T07:58:37.359Z,-6.80
2022-12-15T08:01:06.860Z,-6.80
2022-12-15T08:03:34.638Z,-6.90
2022-12-15T08:06:10.501Z,-6.80
2022-12-15T08:08:37.727Z,-6.80
2022-12-15T08:11:08.516Z,-6.80
2022-12-15T08:14:02.093Z,-6.90
2022-12-15T08:16:22.425Z,-6.70
2022-12-15T08:18:49.153Z,-6.80
2022-12-15T08:21:16.034Z,-7.20
2022-12-15T08:23:42.666Z,-6.60
2022-12-15T08:26:12.550Z,-6.50
2022-12-15T08:28:40.502Z,-6.50
2022-12-15T08:31:09.724Z,-6.50
2022-12-15T08:33:37.527Z,-6.40
2022-12-15T08:36:08.766Z,-6.50
2022-12-15T08:38:38.479Z,-6.50
2022-12-15T08:41:14.042Z,-6.50
2022-12-15T08:43:47.549Z,-6.50
2022-12-15T08:46:20.294Z,-6.50
2022-12-15T08:48:47.126Z,-6.50
2022-12-15T08:51:14.973Z,-6.60
2022-12-15T08:53:41.724Z,-6.50
2022-12-15T08:56:15.710Z,-6.40
2022-12-15T08:58:43.431Z,-6.40
2022-12-15T09:01:19.021Z,-6.30
2022-12-15T09:03:50.334Z,-6.30
2022-12-15T09:06:21.714Z,-6.30
2022-12-15T09:08:50.134Z,-6.30
2022-12-15T09:11:17.552Z,-6.20
2022-12-15T09:13:44.480Z,-6.10
2022-12-15T09:16:18.203Z,-6.10
2022-12-15T09:18:47.878Z,-6.10
2022-12-15T09:21:15.452Z,-6.20
2022-12-15T09:23:42.848Z,-6.10
2022-12-15T09:26:12.639Z,-6.00
2022-12-15T09:28:39.490Z,-6.00
2022-12-15T09:31:11.654Z,-5.90
2022-12-15T09:33:39.973Z,-5.80
2022-12-15T09:36:07.094Z,-5.80
2022-12-15T09:38:35.209Z,-5.80
2022-12-15T09:41:17.437Z,-5.70
2022-12-15T09:43:58.556Z,-5.80
2022-12-15T09:46:50.243Z,-5.80
2022-12-15T09:49:50.789Z,-5.60
2022-12-15T09:52:27.093Z,-5.60
2022-12-15T09:54:54.042Z,-5.60
2022-12-15T09:57:46.608Z,-5.50
2022-12-15T10:00:22.113Z,-5.30
2022-12-15T10:03:00.848Z,-5.20
2022-12-15T10:06:07.210Z,-5.10
2022-12-15T10:08:30.388Z,-5.10
2022-12-15T10:11:04.310Z,-5.00
2022-12-15T10:13:52.266Z,-4.90
2022-12-15T10:16:40.112Z,-4.90
2022-12-15T10:19:19.627Z,-4.70
2022-12-15T10:21:50.619Z,-4.70
2022-12-15T10:25:07.522Z,-4.60
2022-12-15T10:27:24.382Z,-4.40
2022-12-15T10:30:01.250Z,-4.30
2022-12-15T10:33:01.630Z,-4.20
2022-12-15T10:35:37.322Z,-4.10
2022-12-15T10:38:06.856Z,-3.90
2022-12-15T10:40:50.847Z,-3.90
2022-12-15T10:43:28.320Z,-3.90
2022-12-15T10:46:13.787Z,-3.70
2022-12-15T10:48:42.286Z,-3.70
2022-12-15T10:51:28.974Z,-3.50
2022-12-15T10:54:10.032Z,-3.50
2022-12-15T10:56:57.839Z,-3.40
2022-12-15T10:59:32.930Z,-3.30
2022-12-15T11:02:24.640Z,-3.20
2022-12-15T11:05:15.921Z,-3.10
2022-12-15T11:07:44.534Z,-2.90
2022-12-15T11:10:22.261Z,-2.80
2022-12-15T11:13:16.314Z,-2.80
2022-12-15T11:15:50.841Z,-2.70
2022-12-15T11:18:36.459Z,-1.50
2022-12-15T11:21:11.071Z,-2.60
2022-12-15T11:23:46.697Z,-2.40
2022-12-15T11:26:35.767Z,-2.30
2022-12-15T11:29:15.651Z,-2.40
2022-12-15T11:31:44.267Z,-2.50
2022-12-15T11:34:18.253Z,-2.40
2022-12-15T11:37:07.539Z,-2.40
2022-12-15T11:40:05.254Z,-2.40
2022-12-15T11:42:55.192Z,-2.70
2022-12-15T11:45:59.476Z,-2.10
2022-12-15T11:48:41.018Z,-1.90
2022-12-15T11:51:23.373Z,-1.90
2022-12-15T11:54:27.534Z,-1.90
2022-12-15T11:57:05.870Z,-1.90
2022-12-15T11:59:47.201Z,-1.70
2022-12-15T12:02:45.437Z,-1.70
2022-12-15T12:05:24.133Z,-1.60
2022-12-15T12:08:02.725Z,-1.60
2022-12-15T12:10:44.159Z,-0.40
2022-12-15T12:13:28.687Z,-1.50
2022-12-15T12:16:25.703Z,-1.40
2022-12-15T12:18:57.019Z,-1.30
2022-12-15T12:21:28.182Z,-1.20
2022-12-15T12:24:01.833Z,-1.30
2022-12-15T12:26:46.192Z,-0.90
2022-12-15T12:29:52.721Z,-0.90
2022-12-15T12:32:50.410Z,-0.90
2022-12-15T12:35:32.363Z,-0.90
2022-12-15T12:38:05.672Z,-1.00
2022-12-15T12:40:41.223Z,-1.00
2022-12-15T12:43:33.301Z,-1.10
2022-12-15T12:46:19.568Z,-1.20
2022-12-15T12:48:56.056Z,-1.30
2022-12-15T12:51:24.974Z,-1.30
2022-12-15T12:53:52.199Z,-1.40
2022-12-15T12:56:35.260Z,-1.30
2022-12-15T12:59:08.614Z,-1.40
2022-12-15T13:01:38.387Z,-1.40
2022-12-15T13:04:11.915Z,-1.40
2022-12-15T13:06:41.673Z,-1.40
2022-12-15T13:09:17.278Z,-1.50
2022-12-15T13:11:52.779Z,-1.40
2022-12-15T13:14:30.603Z,-1.50
2022-12-15T13:20:00.339Z,-1.40
2022-12-15T13:22:35.662Z,-1.50
2022-12-15T13:25:23.133Z,-1.50
2022-12-15T13:28:06.285Z,-1.50
2022-12-15T13:30:33.204Z,-1.50
2022-12-15T13:33:18.724Z,-1.50
2022-12-15T13:35:46.833Z,-1.50
2022-12-15T13:38:19.097Z,-1.50
2022-12-15T13:40:53.902Z,-1.50
2022-12-15T13:43:26.225Z,-1.60
2022-12-15T13:45:59.029Z,-1.60
2022-12-15T13:48:40.186Z,-1.60
2022-12-15T13:51:32.977Z,-1.70
2022-12-15T13:54:04.308Z,-1.60
2022-12-15T13:56:51.016Z,-1.60
2022-12-15T13:59:33.477Z,-1.50
2022-12-15T14:02:00.327Z,-1.50
2022-12-15T14:04:27.313Z,-1.50
2022-12-15T14:07:00.676Z,-1.70
2022-12-15T14:09:33.853Z,-1.70
2022-12-15T14:12:04.250Z,-1.70
2022-12-15T14:14:36.056Z,-1.70
2022-12-15T14:17:11.875Z,-1.70
2022-12-15T14:19:44.432Z,-1.80
2022-12-15T14:22:28.475Z,-1.90
2022-12-15T14:25:14.082Z,-1.80
2022-12-15T14:27:41.018Z,-1.80
2022-12-15T14:30:14.419Z,-1.80
2022-12-15T14:32:43.906Z,-1.70
2022-12-15T14:35:18.676Z,-1.80
2022-12-15T14:37:45.754Z,-1.80
2022-12-15T14:40:16.243Z,-1.80
2022-12-15T14:42:43.988Z,-1.80
2022-12-15T14:45:32.411Z,-1.80
2022-12-15T14:48:40.513Z,-1.90
2022-12-15T14:50:54.577Z,-2.50
2022-12-15T14:53:23.311Z,-1.90
2022-12-15T14:55:50.121Z,-1.90
2022-12-15T14:58:32.149Z,-1.90
2022-12-15T15:01:00.014Z,-2.00
2022-12-15T15:03:39.018Z,-2.00
2022-12-15T15:06:34.395Z,-2.10
2022-12-15T15:09:23.071Z,-2.10
2022-12-15T15:11:56.744Z,-2.20
2022-12-15T15:14:38.465Z,-2.10
2022-12-15T15:17:09.644Z,-2.10
2022-12-15T15:19:41.767Z,-2.10
2022-12-15T15:22:26.896Z,-2.20
2022-12-15T15:24:53.587Z,-2.10
2022-12-15T15:27:39.567Z,-2.20
2022-12-15T15:30:22.144Z,-2.30
2022-12-15T15:33:08.211Z,-2.30
2022-12-15T15:35:35.038Z,-2.20
2022-12-15T15:38:07.000Z,-2.30
2022-12-15T15:40:33.562Z,-2.30
2022-12-15T15:43:00.317Z,-2.40
2022-12-15T15:45:26.964Z,-2.50
2022-12-15T15:47:56.033Z,-2.50
2022-12-15T15:50:28.949Z,-2.50
2022-12-15T15:52:56.683Z,-2.50
2022-12-15T15:55:36.140Z,-2.60
2022-12-15T15:58:10.766Z,-2.70
2022-12-15T16:00:37.546Z,-2.60
2022-12-15T16:03:04.293Z,-2.70
2022-12-15T16:05:31.048Z,-2.60
2022-12-15T16:07:59.667Z,-2.50
2022-12-15T16:10:26.396Z,-2.50
2022-12-15T16:12:55.341Z,-2.50
2022-12-15T16:15:26.118Z,-2.60
2022-12-15T16:17:53.928Z,-2.60
2022-12-15T16:20:22.698Z,-2.70
2022-12-15T16:22:57.941Z,-2.60
2022-12-15T16:25:48.494Z,-2.60
2022-12-15T16:28:26.487Z,-2.60
2022-12-15T16:30:53.264Z,-2.50
2022-12-15T16:33:20.333Z,-2.60
2022-12-15T16:35:48.308Z,-2.70
2022-12-15T16:38:25.328Z,-2.50
2022-12-15T16:40:52.589Z,-2.50
2022-12-15T16:43:26.940Z,-2.80
2022-12-15T16:45:55.906Z,-2.60
2022-12-15T16:48:22.727Z,-2.60
2022-12-15T16:50:59.088Z,-2.70
2022-12-15T16:53:30.303Z,-2.60
2022-12-15T16:55:59.448Z,-2.60
2022-12-15T16:58:28.597Z,-2.60
2022-12-15T17:00:55.646Z,-2.60
2022-12-15T17:03:25.725Z,-2.60
2022-12-15T17:05:55.631Z,-2.50
2022-12-15T17:08:31.713Z,-2.50
2022-12-15T17:10:58.969Z,-2.50
2022-12-15T17:13:39.048Z,-2.50
2022-12-15T17:16:14.167Z,-2.50
2022-12-15T17:18:42.805Z,-2.50
2022-12-15T17:21:26.559Z,-2.60
2022-12-15T17:23:56.951Z,-2.60
2022-12-15T17:26:29.657Z,-2.60
2022-12-15T17:29:00.957Z,-2.70
2022-12-15T17:31:34.882Z,-2.70
2022-12-15T17:34:34.731Z,-2.70
2022-12-15T17:37:04.286Z,-2.60
2022-12-15T17:39:32.707Z,-2.60
2022-12-15T17:42:31.502Z,-2.60
2022-12-15T17:44:58.204Z,-2.70
2022-12-15T17:47:25.363Z,-2.70
2022-12-15T17:49:52.024Z,-2.50
2022-12-15T17:52:34.212Z,-2.70
2022-12-15T17:55:03.209Z,-2.70
2022-12-15T17:57:31.876Z,-2.70
2022-12-15T17:59:59.546Z,-2.80
2022-12-15T18:02:26.312Z,-2.80
2022-12-15T18:04:54.067Z,-2.70
2022-12-15T18:07:22.873Z,-2.80
2022-12-15T18:09:51.863Z,-2.90
2022-12-15T18:12:24.382Z,-2.90
2022-12-15T18:14:52.087Z,-2.80
2022-12-15T18:17:19.199Z,-2.90
2022-12-15T18:19:45.840Z,-2.90
2022-12-15T18:22:17.860Z,-2.90
2022-12-15T18:24:44.449Z,-2.90
2022-12-15T18:27:27.227Z,-2.90
2022-12-15T18:29:54.548Z,-2.90
2022-12-15T18:32:26.484Z,-3.00
2022-12-15T18:34:54.124Z,-2.90
2022-12-15T18:37:23.395Z,-1.80
2022-12-15T18:39:50.644Z,-2.90
2022-12-15T18:42:21.637Z,-3.00
2022-12-15T18:44:50.386Z,-3.20
2022-12-15T18:47:19.114Z,-3.10
2022-12-15T18:49:46.465Z,-3.10
2022-12-15T18:52:22.614Z,-3.00
2022-12-15T18:54:51.172Z,-3.30
2022-12-15T18:57:36.272Z,-3.20
2022-12-15T19:00:17.979Z,-3.20
2022-12-15T19:02:44.920Z,-3.20
2022-12-15T19:05:27.614Z,-3.20
2022-12-15T19:07:57.764Z,-3.20
2022-12-15T19:10:29.659Z,-3.30
2022-12-15T19:12:58.664Z,-3.20
2022-12-15T19:15:26.043Z,-3.20
2022-12-15T19:18:11.738Z,-3.40
2022-12-15T19:20:57.095Z,-3.30
2022-12-15T19:23:26.819Z,-3.20
2022-12-15T19:25:54.157Z,-3.20
2022-12-15T19:28:23.147Z,-3.20
2022-12-15T19:30:50.449Z,-3.20
2022-12-15T19:33:17.905Z,-3.20
2022-12-15T19:35:51.368Z,-3.20
2022-12-15T19:38:22.515Z,-3.30
2022-12-15T19:40:53.108Z,-3.20
2022-12-15T19:43:20.760Z,-3.20
2022-12-15T19:45:47.858Z,-3.20
2022-12-15T19:48:18.691Z,-3.20
2022-12-15T19:50:51.698Z,-3.30
2022-12-15T19:53:25.427Z,-3.30
2022-12-15T19:55:54.560Z,-3.30
2022-12-15T19:58:30.558Z,-3.30
2022-12-15T20:01:00.304Z,-3.40
2022-12-15T20:03:28.306Z,-3.40
2022-12-15T20:05:57.193Z,-3.40
2022-12-15T20:08:26.727Z,-3.40
2022-12-15T20:10:54.535Z,-3.40
2022-12-15T20:13:22.925Z,-3.50
2022-12-15T20:15:49.643Z,-3.50
2022-12-15T20:18:16.226Z,-3.60
2022-12-15T20:20:45.549Z,-3.50
2022-12-15T20:23:21.770Z,-3.50
2022-12-15T20:25:48.467Z,-3.60
2022-12-15T20:28:29.551Z,-3.70
2022-12-15T20:30:57.749Z,-3.60
2022-12-15T20:33:24.590Z,-3.60
2022-12-15T20:35:54.446Z,-3.70
2022-12-15T20:38:31.975Z,-3.60
2022-12-15T20:41:00.146Z,-3.60
2022-12-15T20:43:28.362Z,-3.70
2022-12-15T20:46:03.547Z,-3.80
2022-12-15T20:48:30.684Z,-3.80
2022-12-15T20:50:57.437Z,-3.80
2022-12-15T20:53:26.671Z,-3.70
2022-12-15T20:55:55.281Z,-3.70
2022-12-15T20:58:32.883Z,-3.70
2022-12-15T21:01:00.183Z,-3.70
2022-12-15T21:03:30.521Z,-3.70
2022-12-15T21:05:58.820Z,-4.90
2022-12-15T21:08:29.809Z,-3.70
2022-12-15T21:11:01.939Z,-3.70
2022-12-15T21:13:33.157Z,-3.60
2022-12-15T21:16:00.262Z,-3.60
2022-12-15T21:19:10.899Z,-5.50
2022-12-15T21:21:27.950Z,-3.60
2022-12-15T21:23:55.679Z,-3.70
2022-12-15T21:26:23.693Z,-3.60
2022-12-15T21:28:55.590Z,-3.70
2022-12-15T21:31:22.841Z,-3.70
2022-12-15T21:33:49.677Z,-3.70
2022-12-15T21:36:18.602Z,-3.80
2022-12-15T21:38:48.406Z,-3.80
2022-12-15T21:41:17.611Z,-3.80
2022-12-15T21:43:44.795Z,-3.90
2022-12-15T21:46:16.634Z,-3.80
2022-12-15T21:49:02.977Z,-3.80
2022-12-15T21:51:36.307Z,-3.80
2022-12-15T21:54:03.661Z,-3.90
2022-12-15T21:56:30.263Z,-3.90
2022-12-15T21:58:59.000Z,-3.90
2022-12-15T22:01:29.655Z,-3.90
2022-12-15T22:03:59.522Z,-4.00
2022-12-15T22:06:28.278Z,-4.00
2022-12-15T22:08:58.567Z,-4.10
2022-12-15T22:11:30.107Z,-4.10
2022-12-15T22:13:59.393Z,-4.10
2022-12-15T22:16:26.121Z,-4.10
2022-12-15T22:18:57.496Z,-4.10
2022-12-15T22:21:24.935Z,-4.10
2022-12-15T22:23:52.423Z,-4.30
2022-12-15T22:26:28.360Z,-4.30
2022-12-15T22:28:56.358Z,-4.10
2022-12-15T22:31:23.280Z,-4.20
2022-12-15T22:33:49.889Z,-4.20
2022-12-15T22:36:16.456Z,-4.10
2022-12-15T22:38:44.515Z,-4.20
2022-12-15T22:41:22.263Z,-2.90
2022-12-15T22:43:53.712Z,-4.20
2022-12-15T22:46:24.135Z,-4.30
2022-12-15T22:48:52.746Z,-4.30
2022-12-15T22:51:21.817Z,-4.40
2022-12-15T22:53:48.495Z,-4.30
2022-12-15T22:56:39.461Z,-4.40
2022-12-15T22:59:10.491Z,-4.40
2022-12-15T23:01:37.515Z,-4.50
2022-12-15T23:04:05.549Z,-4.50
2022-12-15T23:06:32.212Z,-4.60
2022-12-15T23:08:58.912Z,-4.80
2022-12-15T23:11:37.706Z,-4.50
2022-12-15T23:14:10.626Z,-4.60
2022-12-15T23:16:37.912Z,-4.70
2022-12-15T23:19:05.254Z,-4.80
2022-12-15T23:21:32.350Z,-4.70
2022-12-15T23:23:59.113Z,-4.80
2022-12-15T23:26:26.039Z,-4.80
2022-12-15T23:28:55.178Z,-4.80
2022-12-15T23:31:22.097Z,-4.90
2022-12-15T23:33:49.806Z,-4.90
2022-12-15T23:36:18.981Z,-4.90
2022-12-15T23:38:46.116Z,-4.90
2022-12-15T23:41:17.757Z,-4.90
2022-12-15T23:43:45.042Z,-5.00
2022-12-15T23:46:11.858Z,-5.10
2022-12-15T23:48:41.767Z,-5.00
2022-12-15T23:51:14.346Z,-5.00
2022-12-15T23:53:42.206Z,-5.00
2022-12-15T23:56:24.295Z,-5.10
2022-12-15T23:58:56.520Z,-4.90
